sensor_id;sensor_type;location;lat;lon;timestamp;P1;durP1;ratioP1;P2;durP2;ratioP2
77040;SDS011;65974;42.664;23.264;2023-05-29T00:02:11;8.80;;;5.07;;
77040;SDS011;65974;42.664;23.264;2023-05-29T00:04:37;10.48;;;5.70;;
77040;SDS011;65974;42.664;23.264;2023-05-29T00:07:02;7.88;;;4.95;;
77040;SDS011;65974;42.664;23.264;2023-05-29T00:09:28;8.80;;;5.22;;
77040;SDS011;65974;42.664;23.264;2023-05-29T00:11:54;8.38;;;4.78;;
77040;SDS011;65974;42.664;23.264;2023-05-29T00:14:20;12.63;;;5.70;;
77040;SDS011;65974;42.664;23.264;2023-05-29T00:16:47;10.40;;;5.40;;
77040;SDS011;65974;42.664;23.264;2023-05-29T00:19:13;9.23;;;5.68;;
77040;SDS011;65974;42.664;23.264;2023-05-29T00:21:42;9.02;;;4.45;;
77040;SDS011;65974;42.664;23.264;2023-05-29T00:24:08;11.00;;;5.15;;
77040;SDS011;65974;42.664;23.264;2023-05-29T00:26:33;10.82;;;5.45;;
77040;SDS011;65974;42.664;23.264;2023-05-29T00:28:58;8.88;;;6.25;;
77040;SDS011;65974;42.664;23.264;2023-05-29T00:31:24;10.05;;;5.55;;
77040;SDS011;65974;42.664;23.264;2023-05-29T00:33:49;11.25;;;5.50;;
77040;SDS011;65974;42.664;23.264;2023-05-29T00:36:15;9.45;;;5.95;;
77040;SDS011;65974;42.664;23.264;2023-05-29T00:38:42;10.60;;;5.53;;
77040;SDS011;65974;42.664;23.264;2023-05-29T00:41:08;11.13;;;5.30;;
77040;SDS011;65974;42.664;23.264;2023-05-29T00:43:39;10.45;;;5.95;;
77040;SDS011;65974;42.664;23.264;2023-05-29T00:46:04;7.57;;;5.13;;
77040;SDS011;65974;42.664;23.264;2023-05-29T00:48:30;10.18;;;5.68;;
77040;SDS011;65974;42.664;23.264;2023-05-29T00:50:55;7.35;;;4.75;;
77040;SDS011;65974;42.664;23.264;2023-05-29T00:53:21;9.50;;;4.72;;
77040;SDS011;65974;42.664;23.264;2023-05-29T00:55:48;9.45;;;5.22;;
77040;SDS011;65974;42.664;23.264;2023-05-29T00:58:13;8.43;;;4.97;;
77040;SDS011;65974;42.664;23.264;2023-05-29T01:00:39;10.38;;;5.90;;
77040;SDS011;65974;42.664;23.264;2023-05-29T01:03:05;9.40;;;6.32;;
77040;SDS011;65974;42.664;23.264;2023-05-29T01:05:33;10.20;;;7.10;;
77040;SDS011;65974;42.664;23.264;2023-05-29T01:08:01;11.68;;;5.43;;
77040;SDS011;65974;42.664;23.264;2023-05-29T01:10:27;9.02;;;5.97;;
77040;SDS011;65974;42.664;23.264;2023-05-29T01:13:04;8.73;;;5.88;;
77040;SDS011;65974;42.664;23.264;2023-05-29T01:28:49;11.85;;;7.95;;
77040;SDS011;65974;42.664;23.264;2023-05-29T01:31:19;8.93;;;6.05;;
77040;SDS011;65974;42.664;23.264;2023-05-29T01:33:54;9.27;;;5.68;;
77040;SDS011;65974;42.664;23.264;2023-05-29T01:36:21;9.75;;;6.03;;
77040;SDS011;65974;42.664;23.264;2023-05-29T01:38:47;9.55;;;5.57;;
77040;SDS011;65974;42.664;23.264;2023-05-29T01:41:15;12.15;;;6.88;;
77040;SDS011;65974;42.664;23.264;2023-05-29T01:43:42;9.40;;;5.78;;
77040;SDS011;65974;42.664;23.264;2023-05-29T01:46:10;9.07;;;6.00;;
77040;SDS011;65974;42.664;23.264;2023-05-29T01:48:37;12.23;;;5.32;;
77040;SDS011;65974;42.664;23.264;2023-05-29T01:51:03;10.88;;;6.72;;
77040;SDS011;65974;42.664;23.264;2023-05-29T01:53:29;9.82;;;5.60;;
77040;SDS011;65974;42.664;23.264;2023-05-29T01:55:54;12.68;;;6.55;;
77040;SDS011;65974;42.664;23.264;2023-05-29T01:58:20;8.40;;;5.90;;
77040;SDS011;65974;42.664;23.264;2023-05-29T02:00:46;9.80;;;6.45;;
77040;SDS011;65974;42.664;23.264;2023-05-29T02:03:13;9.35;;;5.72;;
77040;SDS011;65974;42.664;23.264;2023-05-29T02:05:38;9.15;;;6.00;;
77040;SDS011;65974;42.664;23.264;2023-05-29T02:08:03;11.32;;;6.78;;
77040;SDS011;65974;42.664;23.264;2023-05-29T02:10:29;9.43;;;6.07;;
77040;SDS011;65974;42.664;23.264;2023-05-29T02:12:56;10.52;;;6.32;;
77040;SDS011;65974;42.664;23.264;2023-05-29T02:15:22;10.90;;;6.82;;
77040;SDS011;65974;42.664;23.264;2023-05-29T02:17:48;10.13;;;6.25;;
77040;SDS011;65974;42.664;23.264;2023-05-29T02:20:14;8.75;;;6.35;;
77040;SDS011;65974;42.664;23.264;2023-05-29T02:22:40;17.60;;;7.35;;
77040;SDS011;65974;42.664;23.264;2023-05-29T02:25:06;9.98;;;6.00;;
77040;SDS011;65974;42.664;23.264;2023-05-29T02:27:32;9.35;;;5.63;;
77040;SDS011;65974;42.664;23.264;2023-05-29T02:29:57;12.35;;;6.78;;
77040;SDS011;65974;42.664;23.264;2023-05-29T02:32:23;14.02;;;6.38;;
77040;SDS011;65974;42.664;23.264;2023-05-29T02:34:49;13.02;;;6.47;;
77040;SDS011;65974;42.664;23.264;2023-05-29T02:37:15;15.43;;;7.35;;
77040;SDS011;65974;42.664;23.264;2023-05-29T02:39:40;12.45;;;7.05;;
77040;SDS011;65974;42.664;23.264;2023-05-29T02:42:06;10.55;;;6.32;;
77040;SDS011;65974;42.664;23.264;2023-05-29T02:44:31;11.25;;;6.60;;
77040;SDS011;65974;42.664;23.264;2023-05-29T02:46:57;12.10;;;7.45;;
77040;SDS011;65974;42.664;23.264;2023-05-29T02:49:22;13.40;;;6.60;;
77040;SDS011;65974;42.664;23.264;2023-05-29T02:51:47;12.95;;;7.18;;
77040;SDS011;65974;42.664;23.264;2023-05-29T02:54:13;11.07;;;6.78;;
77040;SDS011;65974;42.664;23.264;2023-05-29T02:56:39;12.10;;;6.88;;
77040;SDS011;65974;42.664;23.264;2023-05-29T02:59:04;14.05;;;7.32;;
77040;SDS011;65974;42.664;23.264;2023-05-29T03:01:29;12.10;;;7.28;;
77040;SDS011;65974;42.664;23.264;2023-05-29T03:03:55;11.65;;;7.22;;
77040;SDS011;65974;42.664;23.264;2023-05-29T03:06:21;13.27;;;6.80;;
77040;SDS011;65974;42.664;23.264;2023-05-29T03:08:47;18.45;;;6.78;;
77040;SDS011;65974;42.664;23.264;2023-05-29T03:11:13;13.30;;;7.30;;
77040;SDS011;65974;42.664;23.264;2023-05-29T03:13:40;14.23;;;8.30;;
77040;SDS011;65974;42.664;23.264;2023-05-29T03:16:05;19.00;;;8.00;;
77040;SDS011;65974;42.664;23.264;2023-05-29T03:18:33;14.25;;;7.70;;
77040;SDS011;65974;42.664;23.264;2023-05-29T03:20:59;11.02;;;7.70;;
77040;SDS011;65974;42.664;23.264;2023-05-29T03:23:24;13.82;;;8.38;;
77040;SDS011;65974;42.664;23.264;2023-05-29T03:25:50;11.02;;;7.20;;
77040;SDS011;65974;42.664;23.264;2023-05-29T03:28:15;11.52;;;7.63;;
77040;SDS011;65974;42.664;23.264;2023-05-29T03:30:41;13.70;;;6.85;;
77040;SDS011;65974;42.664;23.264;2023-05-29T03:33:06;10.70;;;6.95;;
77040;SDS011;65974;42.664;23.264;2023-05-29T03:35:32;10.27;;;7.30;;
77040;SDS011;65974;42.664;23.264;2023-05-29T03:37:58;15.88;;;8.45;;
77040;SDS011;65974;42.664;23.264;2023-05-29T03:40:23;19.42;;;8.63;;
77040;SDS011;65974;42.664;23.264;2023-05-29T03:42:49;16.48;;;9.30;;
77040;SDS011;65974;42.664;23.264;2023-05-29T03:45:14;21.80;;;9.48;;
77040;SDS011;65974;42.664;23.264;2023-05-29T03:47:40;18.08;;;9.00;;
77040;SDS011;65974;42.664;23.264;2023-05-29T03:50:06;18.70;;;8.80;;
77040;SDS011;65974;42.664;23.264;2023-05-29T03:52:34;17.27;;;9.05;;
77040;SDS011;65974;42.664;23.264;2023-05-29T03:55:00;14.43;;;8.57;;
77040;SDS011;65974;42.664;23.264;2023-05-29T03:57:26;16.13;;;8.57;;
77040;SDS011;65974;42.664;23.264;2023-05-29T03:59:52;13.52;;;8.85;;
77040;SDS011;65974;42.664;23.264;2023-05-29T04:02:17;22.25;;;9.32;;
77040;SDS011;65974;42.664;23.264;2023-05-29T04:04:43;17.95;;;9.38;;
77040;SDS011;65974;42.664;23.264;2023-05-29T04:07:08;15.07;;;8.85;;
77040;SDS011;65974;42.664;23.264;2023-05-29T04:09:34;17.48;;;9.13;;
77040;SDS011;65974;42.664;23.264;2023-05-29T04:11:59;11.73;;;7.78;;
77040;SDS011;65974;42.664;23.264;2023-05-29T04:14:27;14.00;;;7.55;;
77040;SDS011;65974;42.664;23.264;2023-05-29T04:16:53;19.45;;;8.63;;
77040;SDS011;65974;42.664;23.264;2023-05-29T04:19:18;18.35;;;7.53;;
77040;SDS011;65974;42.664;23.264;2023-05-29T04:21:44;17.30;;;6.78;;
77040;SDS011;65974;42.664;23.264;2023-05-29T04:24:09;14.85;;;7.88;;
77040;SDS011;65974;42.664;23.264;2023-05-29T04:26:36;16.17;;;8.40;;
77040;SDS011;65974;42.664;23.264;2023-05-29T04:29:06;14.30;;;7.45;;
77040;SDS011;65974;42.664;23.264;2023-05-29T04:31:31;18.48;;;8.32;;
77040;SDS011;65974;42.664;23.264;2023-05-29T04:33:57;18.25;;;9.60;;
77040;SDS011;65974;42.664;23.264;2023-05-29T04:36:25;17.27;;;9.60;;
77040;SDS011;65974;42.664;23.264;2023-05-29T04:38:54;17.13;;;9.75;;
77040;SDS011;65974;42.664;23.264;2023-05-29T04:41:19;14.45;;;8.43;;
77040;SDS011;65974;42.664;23.264;2023-05-29T04:43:49;16.75;;;9.75;;
77040;SDS011;65974;42.664;23.264;2023-05-29T04:46:16;15.95;;;8.50;;
77040;SDS011;65974;42.664;23.264;2023-05-29T04:48:42;15.40;;;9.18;;
77040;SDS011;65974;42.664;23.264;2023-05-29T04:51:09;14.68;;;9.27;;
77040;SDS011;65974;42.664;23.264;2023-05-29T04:53:36;16.92;;;8.98;;
77040;SDS011;65974;42.664;23.264;2023-05-29T04:56:03;13.60;;;8.70;;
77040;SDS011;65974;42.664;23.264;2023-05-29T04:58:28;23.00;;;9.63;;
77040;SDS011;65974;42.664;23.264;2023-05-29T05:00:53;14.68;;;9.70;;
77040;SDS011;65974;42.664;23.264;2023-05-29T05:03:23;17.83;;;10.57;;
77040;SDS011;65974;42.664;23.264;2023-05-29T05:05:50;19.75;;;9.95;;
77040;SDS011;65974;42.664;23.264;2023-05-29T05:08:16;20.08;;;10.27;;
77040;SDS011;65974;42.664;23.264;2023-05-29T05:10:42;19.75;;;9.23;;
77040;SDS011;65974;42.664;23.264;2023-05-29T05:13:07;21.42;;;11.07;;
77040;SDS011;65974;42.664;23.264;2023-05-29T05:15:33;17.58;;;9.57;;
77040;SDS011;65974;42.664;23.264;2023-05-29T05:17:58;19.33;;;10.38;;
77040;SDS011;65974;42.664;23.264;2023-05-29T05:20:24;19.50;;;11.73;;
77040;SDS011;65974;42.664;23.264;2023-05-29T05:22:49;19.67;;;11.07;;
77040;SDS011;65974;42.664;23.264;2023-05-29T05:25:15;23.38;;;11.40;;
77040;SDS011;65974;42.664;23.264;2023-05-29T05:27:41;26.33;;;11.20;;
77040;SDS011;65974;42.664;23.264;2023-05-29T05:30:07;23.50;;;10.73;;
77040;SDS011;65974;42.664;23.264;2023-05-29T05:32:34;21.80;;;11.15;;
77040;SDS011;65974;42.664;23.264;2023-05-29T05:35:00;37.55;;;12.68;;
77040;SDS011;65974;42.664;23.264;2023-05-29T05:37:25;21.20;;;10.77;;
77040;SDS011;65974;42.664;23.264;2023-05-29T05:39:51;21.00;;;11.77;;
77040;SDS011;65974;42.664;23.264;2023-05-29T05:42:18;20.00;;;11.43;;
77040;SDS011;65974;42.664;23.264;2023-05-29T05:44:44;25.60;;;11.70;;
77040;SDS011;65974;42.664;23.264;2023-05-29T05:47:10;25.25;;;11.65;;
77040;SDS011;65974;42.664;23.264;2023-05-29T05:49:35;20.95;;;12.35;;
77040;SDS011;65974;42.664;23.264;2023-05-29T05:52:01;24.42;;;11.73;;
77040;SDS011;65974;42.664;23.264;2023-05-29T05:54:26;19.23;;;11.35;;
77040;SDS011;65974;42.664;23.264;2023-05-29T05:56:51;19.67;;;8.93;;
77040;SDS011;65974;42.664;23.264;2023-05-29T05:59:17;20.33;;;10.38;;
77040;SDS011;65974;42.664;23.264;2023-05-29T06:01:42;17.80;;;8.60;;
77040;SDS011;65974;42.664;23.264;2023-05-29T06:04:08;19.33;;;9.65;;
77040;SDS011;65974;42.664;23.264;2023-05-29T06:06:34;16.55;;;7.93;;
77040;SDS011;65974;42.664;23.264;2023-05-29T06:08:59;15.80;;;7.85;;
77040;SDS011;65974;42.664;23.264;2023-05-29T06:11:24;13.55;;;8.18;;
77040;SDS011;65974;42.664;23.264;2023-05-29T06:13:53;13.30;;;8.00;;
77040;SDS011;65974;42.664;23.264;2023-05-29T06:16:18;13.63;;;8.23;;
77040;SDS011;65974;42.664;23.264;2023-05-29T06:18:44;13.27;;;6.22;;
77040;SDS011;65974;42.664;23.264;2023-05-29T06:21:11;9.60;;;5.80;;
77040;SDS011;65974;42.664;23.264;2023-05-29T06:23:37;12.23;;;5.97;;
77040;SDS011;65974;42.664;23.264;2023-05-29T06:26:03;10.85;;;5.50;;
77040;SDS011;65974;42.664;23.264;2023-05-29T06:28:29;8.38;;;5.03;;
77040;SDS011;65974;42.664;23.264;2023-05-29T06:30:55;11.57;;;5.60;;
77040;SDS011;65974;42.664;23.264;2023-05-29T06:33:21;9.52;;;6.10;;
77040;SDS011;65974;42.664;23.264;2023-05-29T06:35:47;12.43;;;6.47;;
77040;SDS011;65974;42.664;23.264;2023-05-29T06:38:15;13.43;;;6.20;;
77040;SDS011;65974;42.664;23.264;2023-05-29T06:40:41;9.88;;;6.05;;
77040;SDS011;65974;42.664;23.264;2023-05-29T06:43:06;10.73;;;6.15;;
77040;SDS011;65974;42.664;23.264;2023-05-29T06:45:32;9.02;;;6.15;;
77040;SDS011;65974;42.664;23.264;2023-05-29T06:47:57;14.07;;;6.68;;
77040;SDS011;65974;42.664;23.264;2023-05-29T06:50:22;13.30;;;6.32;;
77040;SDS011;65974;42.664;23.264;2023-05-29T06:52:48;9.77;;;4.28;;
77040;SDS011;65974;42.664;23.264;2023-05-29T06:55:13;8.82;;;4.53;;
77040;SDS011;65974;42.664;23.264;2023-05-29T06:57:39;9.88;;;5.05;;
77040;SDS011;65974;42.664;23.264;2023-05-29T07:00:05;8.70;;;3.97;;
77040;SDS011;65974;42.664;23.264;2023-05-29T07:02:31;11.07;;;4.93;;
77040;SDS011;65974;42.664;23.264;2023-05-29T07:04:58;9.82;;;3.85;;
77040;SDS011;65974;42.664;23.264;2023-05-29T07:07:23;6.40;;;3.47;;
77040;SDS011;65974;42.664;23.264;2023-05-29T07:09:49;6.78;;;3.92;;
77040;SDS011;65974;42.664;23.264;2023-05-29T07:12:14;8.30;;;4.35;;
77040;SDS011;65974;42.664;23.264;2023-05-29T07:14:40;7.13;;;3.88;;
77040;SDS011;65974;42.664;23.264;2023-05-29T07:17:05;6.13;;;3.72;;
77040;SDS011;65974;42.664;23.264;2023-05-29T07:19:31;6.50;;;3.08;;
77040;SDS011;65974;42.664;23.264;2023-05-29T07:21:58;9.25;;;4.13;;
77040;SDS011;65974;42.664;23.264;2023-05-29T07:24:24;6.80;;;3.38;;
77040;SDS011;65974;42.664;23.264;2023-05-29T07:26:50;5.10;;;4.22;;
77040;SDS011;65974;42.664;23.264;2023-05-29T07:29:16;5.88;;;3.17;;
77040;SDS011;65974;42.664;23.264;2023-05-29T07:31:43;13.43;;;4.15;;
77040;SDS011;65974;42.664;23.264;2023-05-29T07:34:09;6.55;;;3.42;;
77040;SDS011;65974;42.664;23.264;2023-05-29T07:36:35;10.00;;;4.20;;
77040;SDS011;65974;42.664;23.264;2023-05-29T07:39:01;9.73;;;3.60;;
77040;SDS011;65974;42.664;23.264;2023-05-29T07:41:26;9.25;;;3.45;;
77040;SDS011;65974;42.664;23.264;2023-05-29T07:43:52;8.18;;;3.38;;
77040;SDS011;65974;42.664;23.264;2023-05-29T07:46:18;7.10;;;3.63;;
77040;SDS011;65974;42.664;23.264;2023-05-29T07:48:44;7.00;;;4.18;;
77040;SDS011;65974;42.664;23.264;2023-05-29T07:51:11;7.43;;;3.92;;
77040;SDS011;65974;42.664;23.264;2023-05-29T07:53:36;6.13;;;4.18;;
77040;SDS011;65974;42.664;23.264;2023-05-29T07:56:02;7.00;;;4.22;;
77040;SDS011;65974;42.664;23.264;2023-05-29T07:58:27;5.20;;;3.90;;
77040;SDS011;65974;42.664;23.264;2023-05-29T08:00:53;8.35;;;3.90;;
77040;SDS011;65974;42.664;23.264;2023-05-29T08:03:18;6.60;;;3.28;;
77040;SDS011;65974;42.664;23.264;2023-05-29T08:05:44;7.53;;;3.92;;
77040;SDS011;65974;42.664;23.264;2023-05-29T08:08:10;9.15;;;3.40;;
77040;SDS011;65974;42.664;23.264;2023-05-29T08:10:39;7.70;;;3.05;;
77040;SDS011;65974;42.664;23.264;2023-05-29T08:13:04;8.20;;;3.72;;
77040;SDS011;65974;42.664;23.264;2023-05-29T08:15:30;7.28;;;3.95;;
77040;SDS011;65974;42.664;23.264;2023-05-29T08:17:56;7.07;;;4.32;;
77040;SDS011;65974;42.664;23.264;2023-05-29T08:20:22;6.57;;;3.60;;
77040;SDS011;65974;42.664;23.264;2023-05-29T08:22:47;9.18;;;4.40;;
77040;SDS011;65974;42.664;23.264;2023-05-29T08:25:13;12.77;;;4.10;;
77040;SDS011;65974;42.664;23.264;2023-05-29T08:27:39;6.80;;;3.90;;
77040;SDS011;65974;42.664;23.264;2023-05-29T08:30:04;10.05;;;4.45;;
77040;SDS011;65974;42.664;23.264;2023-05-29T08:32:30;6.85;;;3.70;;
77040;SDS011;65974;42.664;23.264;2023-05-29T08:34:57;6.93;;;4.00;;
77040;SDS011;65974;42.664;23.264;2023-05-29T08:37:24;6.65;;;3.67;;
77040;SDS011;65974;42.664;23.264;2023-05-29T08:39:50;6.97;;;3.92;;
77040;SDS011;65974;42.664;23.264;2023-05-29T08:42:18;8.48;;;3.28;;
77040;SDS011;65974;42.664;23.264;2023-05-29T08:44:47;5.70;;;3.30;;
77040;SDS011;65974;42.664;23.264;2023-05-29T08:47:16;5.25;;;3.08;;
77040;SDS011;65974;42.664;23.264;2023-05-29T08:49:46;6.85;;;3.80;;
77040;SDS011;65974;42.664;23.264;2023-05-29T08:52:24;10.40;;;4.88;;
77040;SDS011;65974;42.664;23.264;2023-05-29T08:54:53;5.72;;;3.83;;
77040;SDS011;65974;42.664;23.264;2023-05-29T08:57:19;7.93;;;3.90;;
77040;SDS011;65974;42.664;23.264;2023-05-29T08:59:45;6.47;;;3.28;;
77040;SDS011;65974;42.664;23.264;2023-05-29T09:02:14;5.88;;;3.30;;
77040;SDS011;65974;42.664;23.264;2023-05-29T09:04:41;20.13;;;4.55;;
77040;SDS011;65974;42.664;23.264;2023-05-29T09:07:10;10.05;;;4.63;;
77040;SDS011;65974;42.664;23.264;2023-05-29T09:09:36;7.15;;;4.10;;
77040;SDS011;65974;42.664;23.264;2023-05-29T09:12:02;9.95;;;4.13;;
77040;SDS011;65974;42.664;23.264;2023-05-29T09:14:35;7.97;;;5.32;;
77040;SDS011;65974;42.664;23.264;2023-05-29T09:17:06;8.00;;;3.83;;
77040;SDS011;65974;42.664;23.264;2023-05-29T09:19:33;6.93;;;4.07;;
77040;SDS011;65974;42.664;23.264;2023-05-29T09:22:00;9.73;;;4.07;;
77040;SDS011;65974;42.664;23.264;2023-05-29T09:24:27;6.18;;;4.50;;
77040;SDS011;65974;42.664;23.264;2023-05-29T09:26:53;5.07;;;3.08;;
77040;SDS011;65974;42.664;23.264;2023-05-29T09:29:20;7.53;;;3.30;;
77040;SDS011;65974;42.664;23.264;2023-05-29T09:31:46;6.30;;;3.95;;
77040;SDS011;65974;42.664;23.264;2023-05-29T09:34:12;6.15;;;3.38;;
77040;SDS011;65974;42.664;23.264;2023-05-29T09:36:37;5.60;;;4.00;;
77040;SDS011;65974;42.664;23.264;2023-05-29T09:39:03;8.77;;;4.43;;
77040;SDS011;65974;42.664;23.264;2023-05-29T09:41:29;6.63;;;4.18;;
77040;SDS011;65974;42.664;23.264;2023-05-29T09:43:59;7.55;;;3.65;;
77040;SDS011;65974;42.664;23.264;2023-05-29T09:46:25;10.13;;;4.40;;
77040;SDS011;65974;42.664;23.264;2023-05-29T09:48:51;6.03;;;4.13;;
77040;SDS011;65974;42.664;23.264;2023-05-29T09:51:23;9.90;;;5.88;;
77040;SDS011;65974;42.664;23.264;2023-05-29T09:53:49;9.27;;;4.70;;
77040;SDS011;65974;42.664;23.264;2023-05-29T09:56:16;8.45;;;5.03;;
77040;SDS011;65974;42.664;23.264;2023-05-29T09:58:43;10.10;;;4.63;;
77040;SDS011;65974;42.664;23.264;2023-05-29T10:01:13;6.55;;;4.30;;
77040;SDS011;65974;42.664;23.264;2023-05-29T10:03:42;7.50;;;3.90;;
77040;SDS011;65974;42.664;23.264;2023-05-29T10:06:08;5.63;;;4.45;;
77040;SDS011;65974;42.664;23.264;2023-05-29T10:08:42;8.30;;;4.63;;
77040;SDS011;65974;42.664;23.264;2023-05-29T10:11:17;9.77;;;4.88;;
77040;SDS011;65974;42.664;23.264;2023-05-29T10:13:49;6.35;;;4.35;;
77040;SDS011;65974;42.664;23.264;2023-05-29T10:16:18;6.40;;;3.47;;
77040;SDS011;65974;42.664;23.264;2023-05-29T10:18:56;7.38;;;3.92;;
77040;SDS011;65974;42.664;23.264;2023-05-29T10:21:23;7.10;;;3.85;;
77040;SDS011;65974;42.664;23.264;2023-05-29T10:23:51;6.85;;;4.50;;
77040;SDS011;65974;42.664;23.264;2023-05-29T10:26:26;5.65;;;3.70;;
77040;SDS011;65974;42.664;23.264;2023-05-29T10:37:18;10.45;;;3.95;;
77040;SDS011;65974;42.664;23.264;2023-05-29T10:40:04;9.40;;;3.83;;
77040;SDS011;65974;42.664;23.264;2023-05-29T10:42:41;6.30;;;3.95;;
77040;SDS011;65974;42.664;23.264;2023-05-29T10:45:47;6.38;;;4.28;;
77040;SDS011;65974;42.664;23.264;2023-05-29T10:50:38;9.15;;;4.20;;
77040;SDS011;65974;42.664;23.264;2023-05-29T10:53:06;9.00;;;4.90;;
77040;SDS011;65974;42.664;23.264;2023-05-29T10:55:38;11.57;;;5.00;;
77040;SDS011;65974;42.664;23.264;2023-05-29T10:58:11;7.85;;;4.32;;
77040;SDS011;65974;42.664;23.264;2023-05-29T11:00:42;7.55;;;4.15;;
77040;SDS011;65974;42.664;23.264;2023-05-29T11:03:08;5.30;;;3.63;;
77040;SDS011;65974;42.664;23.264;2023-05-29T11:05:34;7.57;;;3.80;;
77040;SDS011;65974;42.664;23.264;2023-05-29T11:08:00;8.38;;;4.35;;
77040;SDS011;65974;42.664;23.264;2023-05-29T11:13:26;6.65;;;4.25;;
77040;SDS011;65974;42.664;23.264;2023-05-29T11:18:44;8.23;;;3.65;;
77040;SDS011;65974;42.664;23.264;2023-05-29T11:23:57;8.60;;;3.67;;
77040;SDS011;65974;42.664;23.264;2023-05-29T11:26:25;7.57;;;3.78;;
77040;SDS011;65974;42.664;23.264;2023-05-29T11:28:52;8.85;;;4.35;;
77040;SDS011;65974;42.664;23.264;2023-05-29T11:31:17;5.72;;;3.85;;
77040;SDS011;65974;42.664;23.264;2023-05-29T11:33:47;8.00;;;4.40;;
77040;SDS011;65974;42.664;23.264;2023-05-29T11:36:19;9.45;;;4.78;;
77040;SDS011;65974;42.664;23.264;2023-05-29T11:38:46;6.53;;;4.30;;
77040;SDS011;65974;42.664;23.264;2023-05-29T11:41:12;6.88;;;4.53;;
77040;SDS011;65974;42.664;23.264;2023-05-29T11:43:38;7.55;;;3.85;;
77040;SDS011;65974;42.664;23.264;2023-05-29T11:46:15;6.53;;;4.43;;
77040;SDS011;65974;42.664;23.264;2023-05-29T11:48:48;7.97;;;4.80;;
77040;SDS011;65974;42.664;23.264;2023-05-29T11:51:14;6.80;;;4.10;;
77040;SDS011;65974;42.664;23.264;2023-05-29T11:53:41;6.15;;;4.45;;
77040;SDS011;65974;42.664;23.264;2023-05-29T11:56:08;10.40;;;4.05;;
77040;SDS011;65974;42.664;23.264;2023-05-29T11:58:37;6.55;;;3.80;;
77040;SDS011;65974;42.664;23.264;2023-05-29T12:01:03;13.20;;;4.63;;
77040;SDS011;65974;42.664;23.264;2023-05-29T12:03:29;6.80;;;4.07;;
77040;SDS011;65974;42.664;23.264;2023-05-29T12:05:55;8.52;;;4.68;;
77040;SDS011;65974;42.664;23.264;2023-05-29T12:08:24;9.30;;;4.25;;
77040;SDS011;65974;42.664;23.264;2023-05-29T12:10:50;5.80;;;3.60;;
77040;SDS011;65974;42.664;23.264;2023-05-29T12:13:21;7.20;;;4.18;;
77040;SDS011;65974;42.664;23.264;2023-05-29T12:15:49;8.82;;;4.45;;
77040;SDS011;65974;42.664;23.264;2023-05-29T12:18:17;8.25;;;4.43;;
77040;SDS011;65974;42.664;23.264;2023-05-29T12:20:43;10.70;;;5.13;;
77040;SDS011;65974;42.664;23.264;2023-05-29T12:23:09;11.07;;;4.45;;
77040;SDS011;65974;42.664;23.264;2023-05-29T12:25:37;12.27;;;4.60;;
77040;SDS011;65974;42.664;23.264;2023-05-29T12:28:02;11.18;;;4.88;;
77040;SDS011;65974;42.664;23.264;2023-05-29T12:30:28;7.80;;;4.00;;
77040;SDS011;65974;42.664;23.264;2023-05-29T12:32:53;7.57;;;4.13;;
77040;SDS011;65974;42.664;23.264;2023-05-29T12:35:22;8.70;;;4.68;;
77040;SDS011;65974;42.664;23.264;2023-05-29T12:37:53;8.32;;;4.68;;
77040;SDS011;65974;42.664;23.264;2023-05-29T12:40:24;8.05;;;4.47;;
77040;SDS011;65974;42.664;23.264;2023-05-29T12:43:08;8.57;;;5.22;;
77040;SDS011;65974;42.664;23.264;2023-05-29T12:45:34;8.20;;;4.50;;
77040;SDS011;65974;42.664;23.264;2023-05-29T12:48:03;9.95;;;4.88;;
77040;SDS011;65974;42.664;23.264;2023-05-29T12:50:31;11.02;;;4.95;;
77040;SDS011;65974;42.664;23.264;2023-05-29T12:55:40;7.60;;;5.13;;
77040;SDS011;65974;42.664;23.264;2023-05-29T12:58:07;12.18;;;5.95;;
77040;SDS011;65974;42.664;23.264;2023-05-29T13:00:33;12.52;;;6.32;;
77040;SDS011;65974;42.664;23.264;2023-05-29T13:03:00;16.23;;;8.32;;
77040;SDS011;65974;42.664;23.264;2023-05-29T13:05:26;16.02;;;6.75;;
77040;SDS011;65974;42.664;23.264;2023-05-29T13:07:51;12.70;;;7.25;;
77040;SDS011;65974;42.664;23.264;2023-05-29T13:10:17;14.32;;;5.93;;
77040;SDS011;65974;42.664;23.264;2023-05-29T13:12:43;11.90;;;6.43;;
77040;SDS011;65974;42.664;23.264;2023-05-29T13:15:11;10.45;;;6.43;;
77040;SDS011;65974;42.664;23.264;2023-05-29T13:17:37;9.27;;;5.32;;
77040;SDS011;65974;42.664;23.264;2023-05-29T13:20:06;10.05;;;5.18;;
77040;SDS011;65974;42.664;23.264;2023-05-29T13:22:34;9.65;;;5.45;;
77040;SDS011;65974;42.664;23.264;2023-05-29T13:25:00;8.40;;;5.18;;
77040;SDS011;65974;42.664;23.264;2023-05-29T13:27:26;9.68;;;5.82;;
77040;SDS011;65974;42.664;23.264;2023-05-29T13:29:52;9.57;;;4.93;;
77040;SDS011;65974;42.664;23.264;2023-05-29T13:32:18;6.65;;;4.30;;
77040;SDS011;65974;42.664;23.264;2023-05-29T13:34:44;6.93;;;4.65;;
77040;SDS011;65974;42.664;23.264;2023-05-29T13:37:09;6.63;;;4.03;;
77040;SDS011;65974;42.664;23.264;2023-05-29T13:39:35;11.85;;;4.93;;
77040;SDS011;65974;42.664;23.264;2023-05-29T13:42:00;8.05;;;4.30;;
77040;SDS011;65974;42.664;23.264;2023-05-29T13:44:26;5.97;;;4.13;;
77040;SDS011;65974;42.664;23.264;2023-05-29T13:46:51;7.45;;;4.20;;
77040;SDS011;65974;42.664;23.264;2023-05-29T13:49:17;7.78;;;4.68;;
77040;SDS011;65974;42.664;23.264;2023-05-29T13:51:42;6.38;;;3.80;;
77040;SDS011;65974;42.664;23.264;2023-05-29T13:54:10;5.07;;;3.08;;
77040;SDS011;65974;42.664;23.264;2023-05-29T13:56:35;5.80;;;3.65;;
77040;SDS011;65974;42.664;23.264;2023-05-29T13:59:01;7.28;;;4.50;;
77040;SDS011;65974;42.664;23.264;2023-05-29T14:01:30;8.52;;;5.85;;
77040;SDS011;65974;42.664;23.264;2023-05-29T14:03:56;7.65;;;4.72;;
77040;SDS011;65974;42.664;23.264;2023-05-29T14:06:21;8.43;;;4.82;;
77040;SDS011;65974;42.664;23.264;2023-05-29T14:08:47;9.52;;;4.72;;
77040;SDS011;65974;42.664;23.264;2023-05-29T14:11:12;7.60;;;4.75;;
77040;SDS011;65974;42.664;23.264;2023-05-29T14:13:38;8.52;;;4.53;;
77040;SDS011;65974;42.664;23.264;2023-05-29T14:16:03;7.70;;;4.63;;
77040;SDS011;65974;42.664;23.264;2023-05-29T14:18:28;9.82;;;4.20;;
77040;SDS011;65974;42.664;23.264;2023-05-29T14:20:54;12.63;;;5.03;;
77040;SDS011;65974;42.664;23.264;2023-05-29T14:23:19;5.93;;;3.88;;
77040;SDS011;65974;42.664;23.264;2023-05-29T14:25:45;4.22;;;2.35;;
77040;SDS011;65974;42.664;23.264;2023-05-29T14:28:10;4.55;;;2.60;;
77040;SDS011;65974;42.664;23.264;2023-05-29T14:30:38;4.32;;;2.40;;
77040;SDS011;65974;42.664;23.264;2023-05-29T14:33:04;7.53;;;2.33;;
77040;SDS011;65974;42.664;23.264;2023-05-29T14:35:30;5.32;;;2.63;;
77040;SDS011;65974;42.664;23.264;2023-05-29T14:37:56;3.30;;;2.40;;
77040;SDS011;65974;42.664;23.264;2023-05-29T14:40:22;4.28;;;2.95;;
77040;SDS011;65974;42.664;23.264;2023-05-29T14:42:47;4.07;;;2.40;;
77040;SDS011;65974;42.664;23.264;2023-05-29T14:45:13;4.07;;;2.45;;
77040;SDS011;65974;42.664;23.264;2023-05-29T14:47:39;4.82;;;2.35;;
77040;SDS011;65974;42.664;23.264;2023-05-29T14:50:06;5.07;;;1.92;;
77040;SDS011;65974;42.664;23.264;2023-05-29T14:52:32;4.75;;;2.38;;
77040;SDS011;65974;42.664;23.264;2023-05-29T14:54:58;6.38;;;2.55;;
77040;SDS011;65974;42.664;23.264;2023-05-29T14:57:24;5.63;;;2.58;;
77040;SDS011;65974;42.664;23.264;2023-05-29T14:59:50;4.07;;;2.50;;
77040;SDS011;65974;42.664;23.264;2023-05-29T15:02:15;4.93;;;2.55;;